createdAt,value
2019-02-26T00:02:28.350Z,11.23
2019-02-26T00:05:00.811Z,9.27
2019-02-26T00:07:32.182Z,9.50
2019-02-26T00:10:07.053Z,8.73
2019-02-26T00:12:39.239Z,12.07
2019-02-26T00:15:12.140Z,8.43
2019-02-26T00:17:45.773Z,9.70
2019-02-26T00:20:17.642Z,9.13
2019-02-26T00:22:48.478Z,9.33
2019-02-26T00:25:20.496Z,8.90
2019-02-26T00:27:52.442Z,8.80
2019-02-26T00:30:23.687Z,9.20
2019-02-26T00:32:55.375Z,11.30
2019-02-26T00:35:27.826Z,9.80
2019-02-26T00:37:59.949Z,8.57
2019-02-26T00:40:34.908Z,9.73
2019-02-26T00:43:06.440Z,8.73
2019-02-26T00:45:39.003Z,9.17
2019-02-26T00:48:09.126Z,8.63
2019-02-26T00:50:39.891Z,10.50
2019-02-26T00:53:12.093Z,10.90
2019-02-26T00:55:42.705Z,7.77
2019-02-26T00:58:13.279Z,9.53
2019-02-26T01:00:44.949Z,9.20
2019-02-26T01:03:15.498Z,8.77
2019-02-26T01:05:46.217Z,11.77
2019-02-26T01:08:17.572Z,9.50
2019-02-26T01:10:49.158Z,8.63
2019-02-26T01:13:20.211Z,10.27
2019-02-26T01:15:53.211Z,9.93
2019-02-26T01:18:24.598Z,9.73
2019-02-26T01:20:57.355Z,8.87
2019-02-26T01:23:28.978Z,10.80
2019-02-26T01:25:59.604Z,11.27
2019-02-26T01:28:31.621Z,12.00
2019-02-26T01:31:03.130Z,9.87
2019-02-26T01:33:34.597Z,8.77
2019-02-26T01:36:05.382Z,11.03
2019-02-26T01:38:39.400Z,12.40
2019-02-26T01:41:11.272Z,10.17
2019-02-26T01:43:42.850Z,8.97
2019-02-26T01:46:16.377Z,8.73
2019-02-26T01:48:46.806Z,10.10
2019-02-26T01:51:19.235Z,8.80
2019-02-26T01:53:51.533Z,8.43
2019-02-26T01:56:23.901Z,9.53
2019-02-26T01:58:56.893Z,10.00
2019-02-26T02:01:28.651Z,9.20
2019-02-26T02:03:59.198Z,9.53
2019-02-26T02:06:30.338Z,9.47
2019-02-26T02:09:02.069Z,9.43
2019-02-26T02:11:33.417Z,11.00
2019-02-26T02:14:06.039Z,10.13
2019-02-26T02:16:37.388Z,8.83
2019-02-26T02:19:08.068Z,9.80
2019-02-26T02:21:38.622Z,10.20
2019-02-26T02:24:12.671Z,11.00
2019-02-26T02:26:47.502Z,9.33
2019-02-26T02:29:19.156Z,8.77
2019-02-26T02:31:52.157Z,12.07
2019-02-26T02:34:23.285Z,9.20
2019-02-26T02:36:55.000Z,8.83
2019-02-26T02:39:26.514Z,11.80
2019-02-26T02:41:57.954Z,9.70
2019-02-26T02:44:28.527Z,10.47
2019-02-26T02:47:01.359Z,11.03
2019-02-26T02:49:32.726Z,10.57
2019-02-26T02:52:04.766Z,9.37
2019-02-26T02:54:36.034Z,9.90
2019-02-26T02:57:09.922Z,9.93
2019-02-26T02:59:42.262Z,9.50
2019-02-26T03:02:15.050Z,9.67
2019-02-26T03:04:48.953Z,10.40
2019-02-26T03:07:20.859Z,10.10
2019-02-26T03:09:51.850Z,9.93
2019-02-26T03:12:23.878Z,11.60
2019-02-26T03:14:58.866Z,10.23
2019-02-26T03:17:28.896Z,12.80
2019-02-26T03:20:02.568Z,9.50
2019-02-26T03:22:35.474Z,10.07
2019-02-26T03:25:05.923Z,8.83
2019-02-26T03:27:40.563Z,10.47
2019-02-26T03:30:20.559Z,10.20
2019-02-26T03:32:52.161Z,11.93
2019-02-26T03:35:23.315Z,8.47
2019-02-26T03:37:55.580Z,11.87
2019-02-26T03:40:27.232Z,11.87
2019-02-26T03:42:57.413Z,8.87
2019-02-26T03:45:31.087Z,8.40
2019-02-26T03:48:02.843Z,9.53
2019-02-26T03:50:33.548Z,9.23
2019-02-26T03:53:09.900Z,8.83
2019-02-26T03:55:42.025Z,8.67
2019-02-26T03:58:13.572Z,8.90
2019-02-26T04:00:46.978Z,9.17
2019-02-26T04:03:17.733Z,9.10
2019-02-26T04:05:49.434Z,8.77
2019-02-26T04:08:23.913Z,10.57
2019-02-26T04:10:55.963Z,9.93
2019-02-26T04:13:27.024Z,10.23
2019-02-26T04:15:59.589Z,8.43
2019-02-26T04:18:34.165Z,8.60
2019-02-26T04:21:05.642Z,9.67
2019-02-26T04:23:36.123Z,9.70
2019-02-26T04:27:19.967Z,9.13
2019-02-26T04:30:53.851Z,8.50
2019-02-26T04:34:07.876Z,10.07
2019-02-26T04:37:49.368Z,9.00
2019-02-26T04:41:03.083Z,10.10
2019-02-26T04:44:42.429Z,10.33
2019-02-26T04:47:30.748Z,9.20
2019-02-26T04:50:02.781Z,9.70
2019-02-26T04:52:35.143Z,9.10
2019-02-26T04:55:05.902Z,9.70
2019-02-26T04:57:39.441Z,10.67
2019-02-26T05:00:10.520Z,10.13
2019-02-26T05:02:41.382Z,9.90
2019-02-26T05:05:12.061Z,8.43
2019-02-26T05:07:45.084Z,10.30
2019-02-26T05:10:15.210Z,10.43
2019-02-26T05:12:45.775Z,11.07
2019-02-26T05:15:18.023Z,8.77
2019-02-26T05:17:48.863Z,8.70
2019-02-26T05:20:19.428Z,9.57
2019-02-26T05:22:52.027Z,8.17
2019-02-26T05:25:23.179Z,9.73
2019-02-26T05:27:55.247Z,9.70
2019-02-26T05:30:25.865Z,7.57
2019-02-26T05:32:57.926Z,8.67
2019-02-26T05:35:28.717Z,11.10
2019-02-26T05:38:01.580Z,9.10
2019-02-26T05:40:31.559Z,9.57
2019-02-26T05:43:04.687Z,7.93
2019-02-26T05:45:35.621Z,9.37
2019-02-26T05:48:06.255Z,9.83
2019-02-26T05:50:38.595Z,8.03
2019-02-26T05:53:11.271Z,10.70
2019-02-26T05:55:43.865Z,9.60
2019-02-26T05:58:18.034Z,8.30
2019-02-26T06:00:47.631Z,8.87
2019-02-26T06:03:19.348Z,12.43
2019-02-26T06:05:52.816Z,9.27
2019-02-26T06:08:26.747Z,9.63
2019-02-26T06:10:58.081Z,9.37
2019-02-26T06:13:31.619Z,8.63
2019-02-26T06:16:04.784Z,9.33
2019-02-26T06:18:34.715Z,9.30
2019-02-26T06:21:05.385Z,8.87
2019-02-26T06:23:36.690Z,9.30
2019-02-26T06:26:14.271Z,9.47
2019-02-26T06:28:45.447Z,9.23
2019-02-26T06:31:17.406Z,9.50
2019-02-26T06:33:50.581Z,9.73
2019-02-26T06:36:23.357Z,9.23
2019-02-26T06:38:56.443Z,9.20
2019-02-26T06:41:27.526Z,9.67
2019-02-26T06:43:58.078Z,10.03
2019-02-26T06:46:29.444Z,9.13
2019-02-26T06:49:00.950Z,9.10
2019-02-26T06:51:31.597Z,8.37
2019-02-26T06:54:02.133Z,10.10
2019-02-26T06:56:36.856Z,10.90
2019-02-26T06:59:12.271Z,12.57
2019-02-26T07:01:44.250Z,10.27
2019-02-26T07:04:14.775Z,8.80
2019-02-26T07:06:45.511Z,10.40
2019-02-26T07:09:18.186Z,9.97
2019-02-26T07:11:48.464Z,9.20
2019-02-26T07:14:19.009Z,9.63
2019-02-26T07:16:49.628Z,9.30
2019-02-26T07:19:20.300Z,8.37
2019-02-26T07:21:52.971Z,9.73
2019-02-26T07:24:24.766Z,8.30
2019-02-26T07:26:55.528Z,10.13
2019-02-26T07:29:26.142Z,8.23
2019-02-26T07:31:58.749Z,9.33
2019-02-26T07:34:29.107Z,8.87
2019-02-26T07:36:59.685Z,8.00
2019-02-26T07:39:30.240Z,9.30
2019-02-26T07:42:00.807Z,8.73
2019-02-26T07:44:31.390Z,9.50
2019-02-26T07:47:03.641Z,8.60
2019-02-26T07:49:34.237Z,9.17
2019-02-26T07:52:06.661Z,8.23
2019-02-26T07:54:40.454Z,8.30
2019-02-26T07:57:10.912Z,8.97
2019-02-26T07:59:45.142Z,8.67
2019-02-26T08:02:16.782Z,9.80
2019-02-26T08:04:47.357Z,8.87
2019-02-26T08:07:19.087Z,9.80
2019-02-26T08:09:50.365Z,8.93
2019-02-26T08:12:22.164Z,7.93
2019-02-26T08:14:52.833Z,8.33
2019-02-26T08:17:23.419Z,9.27
2019-02-26T08:19:53.986Z,8.20
2019-02-26T08:22:25.334Z,8.53
2019-02-26T08:24:58.114Z,7.57
2019-02-26T08:27:30.812Z,9.13
2019-02-26T08:30:01.343Z,9.30
2019-02-26T08:32:32.015Z,9.93
2019-02-26T08:35:02.667Z,10.43
2019-02-26T08:37:33.261Z,7.43
2019-02-26T08:40:05.157Z,8.33
2019-02-26T08:42:35.734Z,10.10
2019-02-26T08:45:15.068Z,10.74
2019-02-26T08:47:45.946Z,8.68
2019-02-26T08:50:16.716Z,11.37
2019-02-26T08:52:50.144Z,9.27
2019-02-26T08:55:23.899Z,9.47
2019-02-26T08:57:54.023Z,8.97
2019-02-26T09:00:24.374Z,10.40
2019-02-26T09:02:56.700Z,10.80
2019-02-26T09:05:29.168Z,11.10
2019-02-26T09:07:59.864Z,10.70
2019-02-26T09:10:30.469Z,10.65
2019-02-26T09:13:02.168Z,11.33
2019-02-26T09:15:33.558Z,11.40
2019-02-26T09:18:05.097Z,11.07
2019-02-26T09:20:35.655Z,11.77
2019-02-26T09:23:06.534Z,12.17
2019-02-26T09:25:37.079Z,15.10
2019-02-26T09:28:07.793Z,12.73
2019-02-26T09:30:41.224Z,13.77
2019-02-26T09:33:13.690Z,13.68
2019-02-26T09:35:45.247Z,15.75
2019-02-26T09:38:17.629Z,13.57
2019-02-26T09:40:50.013Z,12.77
2019-02-26T09:43:22.633Z,13.53
2019-02-26T09:45:53.793Z,13.83
2019-02-26T09:48:24.371Z,14.93
2019-02-26T09:50:55.173Z,14.58
2019-02-26T09:53:25.915Z,14.18
2019-02-26T09:55:56.589Z,13.98
2019-02-26T09:58:27.266Z,15.32
2019-02-26T10:00:57.957Z,14.63
2019-02-26T10:03:29.695Z,13.75
2019-02-26T10:06:00.984Z,13.97
2019-02-26T10:08:31.638Z,15.53
2019-02-26T10:11:04.681Z,15.40
2019-02-26T10:13:36.098Z,15.93
2019-02-26T10:16:08.898Z,15.93
2019-02-26T10:18:39.715Z,15.55
2019-02-26T10:21:12.257Z,17.05
2019-02-26T10:23:47.141Z,18.17
2019-02-26T10:26:16.014Z,14.73
2019-02-26T10:28:51.693Z,18.07
2019-02-26T10:31:25.058Z,14.55
2019-02-26T10:33:53.896Z,14.43
2019-02-26T10:36:24.493Z,16.62
2019-02-26T10:38:57.790Z,15.30
2019-02-26T10:41:27.384Z,15.18
2019-02-26T10:43:58.044Z,13.58
2019-02-26T10:46:29.428Z,14.58
2019-02-26T10:49:01.210Z,14.90
2019-02-26T10:51:31.839Z,13.68
2019-02-26T10:54:08.237Z,14.85
2019-02-26T10:56:39.326Z,16.82
2019-02-26T10:59:09.274Z,15.28
2019-02-26T11:01:41.009Z,15.20
2019-02-26T11:04:11.574Z,14.40
2019-02-26T11:06:45.260Z,14.23
2019-02-26T11:09:19.292Z,15.75
2019-02-26T11:11:48.918Z,12.65
2019-02-26T11:14:19.601Z,12.18
2019-02-26T11:16:50.422Z,11.80
2019-02-26T11:19:24.483Z,13.63
2019-02-26T11:21:57.609Z,13.58
2019-02-26T11:24:28.810Z,11.73
2019-02-26T11:26:59.116Z,11.47
2019-02-26T11:29:30.426Z,12.98
2019-02-26T11:32:04.613Z,12.33
2019-02-26T11:34:38.115Z,13.05
2019-02-26T11:37:08.980Z,12.40
2019-02-26T11:39:39.723Z,13.78
2019-02-26T11:42:10.560Z,13.68
2019-02-26T11:44:42.924Z,12.78
2019-02-26T11:47:16.637Z,13.43
2019-02-26T11:49:47.371Z,12.80
2019-02-26T11:52:20.163Z,12.63
2019-02-26T11:54:50.263Z,11.05
2019-02-26T11:57:20.956Z,10.63
2019-02-26T11:59:51.908Z,13.48
2019-02-26T12:02:26.676Z,12.13
2019-02-26T12:04:54.954Z,12.68
2019-02-26T12:07:27.255Z,12.30
2019-02-26T12:10:01.537Z,10.43
2019-02-26T12:12:31.157Z,11.12
2019-02-26T12:15:06.632Z,15.20
2019-02-26T12:17:38.842Z,11.33
2019-02-26T12:20:14.631Z,10.68
2019-02-26T12:22:46.659Z,10.82
2019-02-26T12:25:19.454Z,12.35
2019-02-26T12:27:50.028Z,11.30
2019-02-26T12:30:21.196Z,10.17
2019-02-26T12:32:53.056Z,11.48
2019-02-26T12:35:25.932Z,12.82
2019-02-26T12:38:01.276Z,10.35
2019-02-26T12:40:29.123Z,10.75
2019-02-26T12:43:02.019Z,9.90
2019-02-26T12:45:35.081Z,11.73
2019-02-26T12:48:06.506Z,11.57
2019-02-26T12:50:40.111Z,10.55
2019-02-26T12:53:14.989Z,10.08
2019-02-26T12:55:43.982Z,10.65
2019-02-26T12:58:17.755Z,10.08
2019-02-26T13:00:48.705Z,9.95
2019-02-26T13:03:22.635Z,9.53
2019-02-26T13:05:53.837Z,9.38
2019-02-26T13:08:24.441Z,10.93
2019-02-26T13:10:58.428Z,10.23
2019-02-26T13:13:29.077Z,9.18
2019-02-26T13:16:00.061Z,8.38
2019-02-26T13:18:30.649Z,8.95
2019-02-26T13:21:03.953Z,10.13
2019-02-26T13:23:33.568Z,9.70
2019-02-26T13:26:08.018Z,9.38
2019-02-26T13:28:38.058Z,11.12
2019-02-26T13:31:13.674Z,9.10
2019-02-26T13:33:42.241Z,9.78
2019-02-26T13:36:13.378Z,9.73
2019-02-26T13:38:48.171Z,8.98
2019-02-26T13:41:38.673Z,9.58
2019-02-26T13:43:48.703Z,9.80
2019-02-26T13:46:19.593Z,10.13
2019-02-26T13:48:50.336Z,10.68
2019-02-26T13:51:21.043Z,9.93
2019-02-26T13:53:51.627Z,9.98
2019-02-26T13:56:23.619Z,10.05
2019-02-26T13:58:54.164Z,9.40
2019-02-26T14:01:24.749Z,10.10
2019-02-26T14:03:56.849Z,9.63
2019-02-26T14:06:27.444Z,10.90
2019-02-26T14:08:58.042Z,9.20
2019-02-26T14:11:28.702Z,8.18
2019-02-26T14:13:59.322Z,8.93
2019-02-26T14:16:32.642Z,7.97
2019-02-26T14:19:03.264Z,9.33
2019-02-26T14:21:33.853Z,8.45
2019-02-26T14:24:04.524Z,9.08
2019-02-26T14:26:35.145Z,9.28
2019-02-26T14:29:05.987Z,10.05
2019-02-26T14:31:36.610Z,8.83
2019-02-26T14:34:07.159Z,9.55
2019-02-26T14:36:37.774Z,10.48
2019-02-26T14:39:09.841Z,9.73
2019-02-26T14:41:40.419Z,10.32
2019-02-26T14:44:10.990Z,9.75
2019-02-26T14:46:41.644Z,11.40
2019-02-26T14:49:32.348Z,9.95
2019-02-26T14:52:02.973Z,8.63
2019-02-26T14:54:33.763Z,9.25
2019-02-26T14:57:04.435Z,10.50
2019-02-26T14:59:35.050Z,9.93
2019-02-26T15:02:05.788Z,10.98
2019-02-26T15:04:36.522Z,11.03
2019-02-26T15:07:07.066Z,10.63
2019-02-26T15:09:37.755Z,10.28
2019-02-26T15:12:08.322Z,9.08
2019-02-26T15:14:42.489Z,11.78
2019-02-26T15:17:13.049Z,9.43
2019-02-26T15:19:49.718Z,9.40
2019-02-26T15:22:17.563Z,9.23
2019-02-26T15:24:49.738Z,11.12
2019-02-26T15:27:20.343Z,10.48
2019-02-26T15:29:51.333Z,10.30
2019-02-26T15:32:21.885Z,10.82
2019-02-26T15:34:52.524Z,12.68
2019-02-26T15:37:24.592Z,10.50
2019-02-26T15:39:55.661Z,10.30
2019-02-26T15:42:26.679Z,9.88
2019-02-26T15:44:57.647Z,11.20
2019-02-26T15:47:32.718Z,9.63
2019-02-26T15:50:06.760Z,11.85
2019-02-26T15:52:37.932Z,11.97
2019-02-26T15:55:11.597Z,12.65
2019-02-26T15:57:43.400Z,10.90
2019-02-26T16:00:18.201Z,11.23
2019-02-26T16:02:50.162Z,15.05
2019-02-26T16:05:22.367Z,10.28
2019-02-26T16:07:53.017Z,11.33
2019-02-26T16:10:23.908Z,9.95
2019-02-26T16:12:54.514Z,9.15
2019-02-26T16:15:25.228Z,10.80
2019-02-26T16:17:58.979Z,11.85
2019-02-26T16:20:28.224Z,11.30
2019-02-26T16:22:58.837Z,12.90
2019-02-26T16:25:29.431Z,12.23
2019-02-26T16:28:00.111Z,13.70
2019-02-26T16:30:31.091Z,14.10
2019-02-26T16:33:01.710Z,13.65
2019-02-26T16:35:32.475Z,13.45
2019-02-26T16:38:04.223Z,13.65
2019-02-26T16:40:34.994Z,13.43
2019-02-26T16:43:05.765Z,11.35
2019-02-26T16:45:37.638Z,12.90
2019-02-26T16:48:08.615Z,10.85
2019-02-26T16:50:39.427Z,11.00
2019-02-26T16:53:10.230Z,11.30
2019-02-26T16:55:41.054Z,10.58
2019-02-26T16:58:11.661Z,9.85
2019-02-26T17:00:42.311Z,11.38
2019-02-26T17:03:13.901Z,11.55
2019-02-26T17:05:47.446Z,10.90
2019-02-26T17:08:17.191Z,10.25
2019-02-26T17:10:47.783Z,12.78
2019-02-26T17:13:18.523Z,10.72
2019-02-26T17:15:49.212Z,11.08
2019-02-26T17:18:19.827Z,10.28
2019-02-26T17:20:50.607Z,10.50
2019-02-26T17:23:21.239Z,13.05
2019-02-26T17:25:51.801Z,10.00
2019-02-26T17:28:22.589Z,10.40
2019-02-26T17:30:57.372Z,12.33
2019-02-26T17:33:26.920Z,10.65
2019-02-26T17:35:59.529Z,11.45
2019-02-26T17:38:30.102Z,10.90
2019-02-26T17:41:02.603Z,10.43
2019-02-26T17:43:34.525Z,11.55
2019-02-26T17:46:05.130Z,21.33
2019-02-26T17:48:43.298Z,19.23
2019-02-26T17:51:08.180Z,15.95
2019-02-26T17:53:39.301Z,16.87
2019-02-26T17:56:09.999Z,16.62
2019-02-26T17:58:41.675Z,14.75
2019-02-26T18:01:14.042Z,13.80
2019-02-26T18:03:46.512Z,15.70
2019-02-26T18:06:17.075Z,11.53
2019-02-26T18:08:47.805Z,16.30
2019-02-26T18:11:23.593Z,13.78
2019-02-26T18:13:55.118Z,13.32
2019-02-26T18:16:27.486Z,12.00
2019-02-26T18:18:59.504Z,13.35
2019-02-26T18:21:30.257Z,11.15
2019-02-26T18:24:00.833Z,12.03
2019-02-26T18:26:31.470Z,11.75
2019-02-26T18:29:02.116Z,12.10
2019-02-26T18:31:32.688Z,14.47
2019-02-26T18:34:03.306Z,12.98
2019-02-26T18:36:33.926Z,14.47
2019-02-26T18:39:06.949Z,11.97
2019-02-26T18:41:37.761Z,14.38
2019-02-26T18:44:09.598Z,14.18
2019-02-26T18:46:40.237Z,13.30
2019-02-26T18:49:10.873Z,17.62
2019-02-26T18:51:41.453Z,14.05
2019-02-26T18:54:12.095Z,13.80
2019-02-26T18:56:42.683Z,13.38
2019-02-26T18:59:13.406Z,14.18
2019-02-26T19:01:44.011Z,13.48
2019-02-26T19:04:16.815Z,12.35
2019-02-26T19:06:47.502Z,12.82
2019-02-26T19:09:18.190Z,12.63
2019-02-26T19:11:48.828Z,13.93
2019-02-26T19:14:19.480Z,13.72
2019-02-26T19:16:54.155Z,12.88
2019-02-26T19:19:22.612Z,13.90
2019-02-26T19:21:54.079Z,11.75
2019-02-26T19:24:25.304Z,13.08
2019-02-26T19:26:57.707Z,14.63
2019-02-26T19:29:31.173Z,15.25
2019-02-26T19:32:00.750Z,14.43
2019-02-26T19:34:32.418Z,12.28
2019-02-26T19:37:04.626Z,13.90
2019-02-26T19:39:35.218Z,13.38
2019-02-26T19:42:06.163Z,13.28
2019-02-26T19:44:38.574Z,15.25
2019-02-26T19:47:10.626Z,13.75
2019-02-26T19:49:44.507Z,14.85
2019-02-26T19:52:15.181Z,13.78
2019-02-26T19:54:45.782Z,14.70
2019-02-26T19:57:16.407Z,14.68
2019-02-26T19:59:47.639Z,13.83
2019-02-26T20:02:18.450Z,16.30
2019-02-26T20:04:49.047Z,13.65
2019-02-26T20:07:19.957Z,13.62
2019-02-26T20:09:50.580Z,15.03
2019-02-26T20:12:22.542Z,13.78
2019-02-26T20:14:53.160Z,15.38
2019-02-26T20:17:23.890Z,13.65
2019-02-26T20:19:54.452Z,14.33
2019-02-26T20:22:30.092Z,14.90
2019-02-26T20:24:59.273Z,16.10
2019-02-26T20:27:29.880Z,14.70
2019-02-26T20:30:00.482Z,15.20
2019-02-26T20:32:31.656Z,14.23
2019-02-26T20:35:02.940Z,14.70
2019-02-26T20:37:33.572Z,14.00
2019-02-26T20:40:04.432Z,15.60
2019-02-26T20:42:35.027Z,16.52
2019-02-26T20:45:06.040Z,14.90
2019-02-26T20:47:36.655Z,15.83
2019-02-26T20:50:07.772Z,15.33
2019-02-26T20:52:38.377Z,16.12
2019-02-26T20:55:11.547Z,16.50
2019-02-26T20:57:42.061Z,14.68
2019-02-26T21:00:16.248Z,14.47
2019-02-26T21:02:46.929Z,15.32
2019-02-26T21:05:17.648Z,17.57
2019-02-26T21:07:49.630Z,13.63
2019-02-26T21:10:20.839Z,14.63
2019-02-26T21:12:51.448Z,16.45
2019-02-26T21:15:22.604Z,16.80
2019-02-26T21:17:53.232Z,16.70
2019-02-26T21:20:23.825Z,15.90
2019-02-26T21:22:55.516Z,16.87
2019-02-26T21:25:27.920Z,17.30
2019-02-26T21:28:01.467Z,17.07
2019-02-26T21:30:32.210Z,17.27
2019-02-26T21:33:02.848Z,17.45
2019-02-26T21:35:33.511Z,17.13
2019-02-26T21:38:06.022Z,15.60
2019-02-26T21:40:37.351Z,15.63
2019-02-26T21:43:09.065Z,18.00
2019-02-26T21:45:39.669Z,16.67
2019-02-26T21:48:10.223Z,15.43
2019-02-26T21:50:40.812Z,17.40
2019-02-26T21:53:15.959Z,15.73
2019-02-26T21:55:45.184Z,14.97
2019-02-26T21:58:15.880Z,15.17
2019-02-26T22:00:48.597Z,14.90
2019-02-26T22:03:20.257Z,14.73
2019-02-26T22:05:51.071Z,17.13
2019-02-26T22:08:24.567Z,15.90
2019-02-26T22:10:55.212Z,14.87
2019-02-26T22:13:29.092Z,15.53
2019-02-26T22:15:58.110Z,14.63
2019-02-26T22:18:31.810Z,14.13
2019-02-26T22:21:01.018Z,16.17
2019-02-26T22:23:34.064Z,17.60
2019-02-26T22:26:04.232Z,16.53
2019-02-26T22:28:34.833Z,15.80
2019-02-26T22:31:07.341Z,14.83
2019-02-26T22:33:40.708Z,15.30
2019-02-26T22:36:10.633Z,16.97
2019-02-26T22:38:42.514Z,16.17
2019-02-26T22:41:13.098Z,16.93
2019-02-26T22:43:44.761Z,14.77
2019-02-26T22:46:16.073Z,14.23
2019-02-26T22:48:46.939Z,16.77
2019-02-26T22:51:18.699Z,17.10
2019-02-26T22:53:49.381Z,16.27
2019-02-26T22:56:21.908Z,18.60
2019-02-26T22:58:52.415Z,16.97
2019-02-26T23:01:30.952Z,17.47
2019-02-26T23:04:04.066Z,15.63
2019-02-26T23:06:34.653Z,16.13
2019-02-26T23:09:07.038Z,16.93
2019-02-26T23:11:37.829Z,17.30
2019-02-26T23:14:10.079Z,14.87
2019-02-26T23:16:41.093Z,16.27
2019-02-26T23:19:11.844Z,17.30
2019-02-26T23:21:44.584Z,18.37
2019-02-26T23:24:15.277Z,17.50
2019-02-26T23:26:45.942Z,19.13
2019-02-26T23:29:16.512Z,15.20
2019-02-26T23:31:47.380Z,18.23
2019-02-26T23:34:21.637Z,16.60
2019-02-26T23:36:50.437Z,15.50
2019-02-26T23:39:21.525Z,14.13
2019-02-26T23:41:52.280Z,16.07
2019-02-26T23:44:22.956Z,18.17
2019-02-26T23:46:53.538Z,15.13
2019-02-26T23:49:24.215Z,16.73
2019-02-26T23:51:54.768Z,15.17
2019-02-26T23:54:25.338Z,15.63
2019-02-26T23:56:57.157Z,18.33
2019-02-26T23:59:28.858Z,15.63
